createdAt,value
2018-08-28T00:02:20.850Z,1.46
2018-08-28T00:08:15.827Z,1.56
2018-08-28T00:14:10.872Z,1.65
2018-08-28T00:20:05.872Z,1.59
2018-08-28T00:26:00.886Z,2.03
2018-08-28T00:31:55.858Z,1.71
2018-08-28T00:37:50.880Z,1.8
2018-08-28T00:43:45.868Z,1.82
2018-08-28T00:49:40.870Z,1.77
2018-08-28T00:55:35.876Z,1.5
2018-08-28T01:01:30.875Z,1.76
2018-08-28T01:07:25.867Z,2.03
2018-08-28T01:13:20.894Z,1.83
2018-08-28T01:19:15.902Z,1.61
2018-08-28T01:25:10.888Z,1.93
2018-08-28T01:31:05.907Z,1.75
2018-08-28T01:37:00.915Z,1.57
2018-08-28T01:42:55.973Z,1.74
2018-08-28T01:48:50.909Z,1.79
2018-08-28T01:54:45.949Z,1.9
2018-08-28T02:00:40.936Z,1.84
2018-08-28T02:06:35.993Z,1.65
2018-08-28T02:12:30.942Z,1.92
2018-08-28T02:18:25.947Z,1.83
2018-08-28T02:24:20.932Z,1.84
2018-08-28T02:30:15.940Z,1.92
2018-08-28T02:36:10.927Z,1.69
2018-08-28T02:42:05.959Z,1.99
2018-08-28T02:48:00.953Z,2.33
2018-08-28T02:53:55.981Z,2.03
2018-08-28T02:59:50.940Z,1.88
2018-08-28T03:05:45.998Z,1.9
2018-08-28T03:11:41.077Z,1.88
2018-08-28T03:17:35.998Z,2.16
2018-08-28T03:23:31.097Z,2.06
2018-08-28T03:29:25.994Z,2.04
2018-08-28T03:35:20.979Z,1.67
2018-08-28T03:41:16.033Z,1.72
2018-08-28T03:47:11.016Z,1.62
2018-08-28T03:53:06.040Z,1.87
2018-08-28T03:59:00.995Z,1.9
2018-08-28T04:04:56.033Z,2.03
2018-08-28T04:10:51.003Z,1.64
2018-08-28T04:16:46.034Z,2.47
2018-08-28T04:22:41.183Z,1.79
2018-08-28T04:28:36.061Z,1.84
2018-08-28T04:34:31.021Z,1.96
2018-08-28T04:40:26.069Z,1.95
2018-08-28T04:46:21.012Z,2.18
2018-08-28T04:52:16.016Z,1.71
2018-08-28T04:58:11.045Z,1.83
2018-08-28T05:04:06.049Z,2.01
2018-08-28T05:10:01.063Z,2.04
2018-08-28T05:15:56.115Z,1.97
2018-08-28T05:21:51.039Z,1.99
2018-08-28T05:27:46.054Z,1.83
2018-08-28T05:33:41.080Z,1.97
2018-08-28T05:39:36.068Z,1.98
2018-08-28T05:45:31.066Z,1.66
2018-08-28T05:51:26.076Z,2.01
2018-08-28T05:57:21.111Z,1.96
2018-08-28T06:03:16.205Z,2.07
2018-08-28T06:09:11.110Z,2.14
2018-08-28T06:15:06.097Z,1.84
2018-08-28T06:21:01.137Z,1.93
2018-08-28T06:26:56.089Z,1.86
2018-08-28T06:32:51.097Z,2.31
2018-08-28T06:38:46.150Z,1.86
2018-08-28T06:44:41.107Z,2
2018-08-28T06:50:36.157Z,2.15
2018-08-28T06:56:31.138Z,1.83
2018-08-28T07:02:26.146Z,2.01
2018-08-28T07:08:21.114Z,2.06
2018-08-28T07:14:16.133Z,2.09
2018-08-28T07:20:11.134Z,2.12
2018-08-28T07:26:06.246Z,1.99
2018-08-28T07:32:01.147Z,2.37
2018-08-28T07:37:56.209Z,2
2018-08-28T07:43:51.162Z,2.16
2018-08-28T07:49:46.174Z,2.08
2018-08-28T07:55:41.160Z,1.9
2018-08-28T08:01:36.159Z,1.85
2018-08-28T08:07:31.225Z,1.47
2018-08-28T08:13:26.183Z,1.79
2018-08-28T08:19:21.202Z,1.8
2018-08-28T08:25:16.218Z,1.88
2018-08-28T08:31:11.175Z,1.57
2018-08-28T08:37:06.190Z,1.83
2018-08-28T08:43:01.217Z,1.39
2018-08-28T08:48:56.219Z,1.46
2018-08-28T08:54:51.302Z,2.69
2018-08-28T09:00:46.261Z,3.34
2018-08-28T09:06:41.228Z,1.68
2018-08-28T09:12:36.281Z,1.42
2018-08-28T09:18:31.236Z,1.66
2018-08-28T09:24:26.268Z,1.79
2018-08-28T09:30:21.276Z,1.71
2018-08-28T09:36:16.303Z,1.56
2018-08-28T09:42:11.259Z,1.58
2018-08-28T09:48:06.299Z,1.72
2018-08-28T09:54:01.263Z,1.29
2018-08-28T09:59:56.281Z,1.32
2018-08-28T10:05:51.359Z,1.1
2018-08-28T10:11:46.291Z,1.07
2018-08-28T10:17:41.300Z,0.96
2018-08-28T10:23:36.300Z,0.92
2018-08-28T10:29:31.346Z,0.8
2018-08-28T10:35:26.306Z,0.73
2018-08-28T10:41:21.306Z,0.84
2018-08-28T10:47:16.319Z,0.71
2018-08-28T10:53:11.312Z,0.81
2018-08-28T10:59:06.357Z,0.66
2018-08-28T11:05:01.341Z,0.73
2018-08-28T11:10:56.334Z,1.07
2018-08-28T11:16:51.348Z,0.73
2018-08-28T11:22:46.454Z,0.72
2018-08-28T11:28:41.342Z,0.81
2018-08-28T11:34:36.340Z,0.6
2018-08-28T11:40:31.382Z,0.66
2018-08-28T11:46:26.412Z,0.59
2018-08-28T11:52:21.364Z,0.67
2018-08-28T11:58:16.408Z,0.71
2018-08-28T12:04:11.398Z,0.62
2018-08-28T12:10:06.388Z,0.71
2018-08-28T12:16:01.402Z,0.62
2018-08-28T12:21:56.423Z,0.57
2018-08-28T12:27:51.397Z,0.57
2018-08-28T12:33:46.405Z,0.51
2018-08-28T12:39:41.439Z,0.58
2018-08-28T12:45:36.432Z,0.6
2018-08-28T12:51:31.606Z,0.44
2018-08-28T12:57:26.430Z,0.68
2018-08-28T13:03:21.492Z,0.54
2018-08-28T13:09:16.459Z,0.52
2018-08-28T13:15:11.449Z,0.69
2018-08-28T13:21:06.465Z,0.43
2018-08-28T13:27:01.448Z,0.58
2018-08-28T13:32:56.466Z,0.53
2018-08-28T13:38:51.469Z,0.5
2018-08-28T13:44:46.484Z,0.57
2018-08-28T13:50:41.483Z,0.48
2018-08-28T13:56:36.503Z,0.54
2018-08-28T14:02:31.485Z,0.52
2018-08-28T14:08:26.555Z,0.48
2018-08-28T14:20:19.379Z,0.55
2018-08-28T14:26:11.546Z,0.93
2018-08-28T14:32:06.542Z,0.71
2018-08-28T14:38:01.530Z,0.47
2018-08-28T14:43:56.542Z,0.68
2018-08-28T14:49:51.619Z,0.69
2018-08-28T14:55:46.542Z,0.62
2018-08-28T15:01:41.537Z,0.67
2018-08-28T15:07:36.603Z,0.63
2018-08-28T15:13:31.606Z,0.68
2018-08-28T15:19:26.556Z,0.57
2018-08-28T15:25:21.565Z,0.8
2018-08-28T15:31:16.570Z,0.68
2018-08-28T15:37:11.588Z,0.73
2018-08-28T15:43:06.687Z,0.71
2018-08-28T15:49:01.599Z,0.76
2018-08-28T15:54:56.587Z,1.06
2018-08-28T16:00:51.623Z,0.91
2018-08-28T16:06:46.618Z,1.06
2018-08-28T16:12:41.610Z,0.64
2018-08-28T16:18:36.610Z,0.76
2018-08-28T16:24:31.611Z,0.82
2018-08-28T16:30:26.632Z,0.91
2018-08-28T16:36:21.670Z,1.34
2018-08-28T16:42:16.681Z,1.29
2018-08-28T16:48:11.664Z,1.3
2018-08-28T16:54:06.661Z,1.12
2018-08-28T17:00:01.846Z,1.3
2018-08-28T17:05:56.700Z,0.99
2018-08-28T17:11:51.709Z,1.26
2018-08-28T17:17:46.659Z,1.17
2018-08-28T17:23:41.687Z,0.82
2018-08-28T17:29:36.685Z,0.96
2018-08-28T17:35:31.708Z,0.97
2018-08-28T17:41:26.700Z,1.05
2018-08-28T17:47:21.716Z,1.08
2018-08-28T17:53:16.698Z,0.9
2018-08-28T17:59:11.707Z,1.19
2018-08-28T18:05:06.698Z,1.49
2018-08-28T18:11:01.731Z,1.02
2018-08-28T18:16:56.755Z,1.11
2018-08-28T18:22:51.756Z,0.71
2018-08-28T18:28:46.785Z,1.07
2018-08-28T18:34:41.863Z,4.27
2018-08-28T18:40:36.743Z,1.09
2018-08-28T18:46:31.793Z,1.1
2018-08-28T18:52:26.744Z,1.03
2018-08-28T18:58:21.826Z,1.03
2018-08-28T19:04:16.756Z,1.2
2018-08-28T19:10:11.781Z,1.01
2018-08-28T19:16:06.770Z,1.64
2018-08-28T19:22:01.773Z,2.2
2018-08-28T19:27:56.774Z,1.15
2018-08-28T19:33:51.805Z,1.38
2018-08-28T19:39:46.810Z,1.17
2018-08-28T19:45:41.800Z,1.03
2018-08-28T19:51:36.814Z,1
2018-08-28T19:57:31.801Z,1.13
2018-08-28T20:03:26.833Z,1.08
2018-08-28T20:09:21.814Z,1.36
2018-08-28T20:15:16.794Z,1.21
2018-08-28T20:21:11.841Z,4.47
2018-08-28T20:27:06.840Z,5.18
2018-08-28T20:33:01.861Z,1.96
2018-08-28T20:38:56.825Z,1.01
2018-08-28T20:44:51.859Z,1.33
2018-08-28T20:50:46.835Z,0.97
2018-08-28T20:56:41.853Z,4.03
2018-08-28T21:02:36.873Z,4.4
2018-08-28T21:08:31.871Z,3.84
2018-08-28T21:14:26.869Z,1.65
2018-08-28T21:20:21.909Z,3.07
2018-08-28T21:26:16.962Z,1.53
2018-08-28T21:32:11.904Z,1.41
2018-08-28T21:38:06.895Z,1.53
2018-08-28T21:44:01.912Z,2.07
2018-08-28T21:49:56.892Z,1.5
2018-08-28T21:55:51.946Z,1.64
2018-08-28T22:01:46.929Z,1.34
2018-08-28T22:07:41.915Z,1.21
2018-08-28T22:13:36.940Z,1.24
2018-08-28T22:19:31.913Z,1.28
2018-08-28T22:25:26.927Z,1.44
2018-08-28T22:31:21.968Z,1.69
2018-08-28T22:37:16.957Z,1.49
2018-08-28T22:43:11.984Z,1.75
2018-08-28T22:49:06.982Z,1.48
2018-08-28T22:55:01.983Z,1.29
2018-08-28T23:00:56.973Z,1.05
2018-08-28T23:06:52.014Z,1.22
2018-08-28T23:12:47.008Z,1.43
2018-08-28T23:24:37.002Z,1.14
2018-08-28T23:30:31.980Z,0.95
2018-08-28T23:36:26.981Z,1.21
2018-08-28T23:42:21.991Z,1.09
2018-08-28T23:48:17.019Z,1.17
2018-08-28T23:54:12.009Z,1.23
